createdAt,value
2023-03-06T00:00:18.371Z,706.38
2023-03-06T00:01:18.350Z,709.01
2023-03-06T00:02:18.343Z,710.93
2023-03-06T00:03:18.350Z,711.08
2023-03-06T00:04:18.337Z,711.37
2023-03-06T00:05:18.306Z,710.40
2023-03-06T00:06:18.308Z,711.13
2023-03-06T00:07:18.287Z,704.06
2023-03-06T00:08:18.329Z,702.69
2023-03-06T00:09:18.284Z,702.41
2023-03-06T00:10:18.259Z,705.51
2023-03-06T00:11:18.267Z,713.64
2023-03-06T00:12:18.234Z,710.95
2023-03-06T00:13:18.230Z,707.49
2023-03-06T00:14:18.237Z,706.71
2023-03-06T00:15:18.196Z,700.61
2023-03-06T00:16:18.262Z,700.20
2023-03-06T00:17:18.207Z,698.99
2023-03-06T00:18:18.190Z,700.77
2023-03-06T00:19:18.191Z,700.98
2023-03-06T00:20:18.167Z,702.57
2023-03-06T00:21:18.133Z,705.57
2023-03-06T00:22:18.133Z,710.65
2023-03-06T00:23:18.115Z,709.73
2023-03-06T00:24:18.105Z,709.32
2023-03-06T00:25:18.100Z,708.61
2023-03-06T00:26:18.094Z,706.46
2023-03-06T00:27:18.071Z,707.81
2023-03-06T00:28:18.062Z,708.61
2023-03-06T00:29:18.076Z,713.90
2023-03-06T00:30:18.049Z,715.59
2023-03-06T00:31:18.081Z,710.29
2023-03-06T00:32:18.072Z,706.38
2023-03-06T00:33:18.020Z,712.96
2023-03-06T00:34:18.008Z,708.99
2023-03-06T00:35:18.059Z,704.63
2023-03-06T00:36:17.972Z,711.23
2023-03-06T00:37:17.954Z,705.94
2023-03-06T00:38:17.949Z,707.93
2023-03-06T00:39:17.942Z,710.15
2023-03-06T00:40:17.959Z,707.10
2023-03-06T00:41:17.923Z,706.54
2023-03-06T00:42:17.912Z,708.00
2023-03-06T00:43:25.405Z,706.74
2023-03-06T00:44:17.881Z,709.72
2023-03-06T00:45:17.892Z,710.61
2023-03-06T00:46:17.860Z,715.49
2023-03-06T00:47:17.851Z,715.46
2023-03-06T00:48:17.840Z,707.30
2023-03-06T00:49:17.829Z,707.79
2023-03-06T00:50:17.846Z,704.75
2023-03-06T00:51:17.843Z,696.39
2023-03-06T00:52:17.795Z,696.05
2023-03-06T00:53:17.780Z,700.48
2023-03-06T00:54:17.776Z,696.71
2023-03-06T00:55:17.767Z,689.87
2023-03-06T00:56:19.858Z,693.25
2023-03-06T00:57:17.736Z,693.43
2023-03-06T00:58:17.727Z,693.79
2023-03-06T00:59:17.717Z,696.43
2023-03-06T01:00:17.709Z,700.17
2023-03-06T01:01:17.801Z,700.12
2023-03-06T01:02:17.757Z,703.62
2023-03-06T01:03:17.695Z,705.15
2023-03-06T01:04:17.660Z,698.14
2023-03-06T01:05:17.666Z,701.08
2023-03-06T01:06:17.654Z,699.67
2023-03-06T01:07:17.662Z,695.16
2023-03-06T01:08:17.618Z,692.36
2023-03-06T01:09:17.625Z,694.46
2023-03-06T01:10:17.617Z,695.85
2023-03-06T01:11:17.615Z,699.16
2023-03-06T01:12:17.588Z,699.17
2023-03-06T01:13:17.557Z,702.33
2023-03-06T01:14:17.559Z,700.71
2023-03-06T01:15:17.540Z,699.98
2023-03-06T01:16:17.561Z,696.17
2023-03-06T01:17:17.524Z,696.93
2023-03-06T01:18:17.506Z,698.95
2023-03-06T01:19:17.518Z,700.08
2023-03-06T01:20:17.491Z,701.59
2023-03-06T01:21:17.486Z,700.73
2023-03-06T01:22:17.477Z,699.90
2023-03-06T01:23:17.468Z,700.51
2023-03-06T01:24:17.444Z,700.09
2023-03-06T01:25:17.426Z,703.28
2023-03-06T01:26:17.429Z,708.28
2023-03-06T01:27:17.418Z,707.05
2023-03-06T01:28:17.403Z,709.49
2023-03-06T01:29:17.389Z,699.36
2023-03-06T01:30:17.389Z,697.53
2023-03-06T01:31:17.422Z,700.93
2023-03-06T01:32:17.385Z,704.96
2023-03-06T01:33:17.358Z,705.65
2023-03-06T01:34:17.345Z,702.75
2023-03-06T01:35:17.434Z,700.46
2023-03-06T01:36:17.319Z,699.55
2023-03-06T01:37:17.337Z,700.27
2023-03-06T01:38:17.311Z,695.25
2023-03-06T01:39:17.300Z,696.75
2023-03-06T01:40:18.222Z,699.47
2023-03-06T01:41:17.264Z,701.41
2023-03-06T01:42:17.248Z,703.61
2023-03-06T01:43:17.261Z,705.56
2023-03-06T01:44:17.224Z,705.70
2023-03-06T01:45:17.223Z,709.27
2023-03-06T01:46:17.230Z,713.29
2023-03-06T01:47:17.192Z,715.46
2023-03-06T01:48:17.197Z,711.15
2023-03-06T01:49:17.185Z,705.90
2023-03-06T01:50:17.187Z,707.08
2023-03-06T01:51:17.160Z,709.04
2023-03-06T01:52:17.142Z,709.51
2023-03-06T01:53:17.155Z,706.34
2023-03-06T01:54:17.118Z,706.69
2023-03-06T01:55:17.128Z,708.41
2023-03-06T01:56:17.099Z,708.08
2023-03-06T01:57:17.097Z,707.16
2023-03-06T01:58:17.094Z,706.37
2023-03-06T01:59:17.060Z,706.57
2023-03-06T02:00:17.076Z,707.44
2023-03-06T02:01:17.167Z,710.33
2023-03-06T02:02:17.060Z,712.82
2023-03-06T02:03:17.030Z,715.06
2023-03-06T02:04:17.008Z,716.80
2023-03-06T02:05:17.028Z,717.76
2023-03-06T02:06:17.025Z,716.14
2023-03-06T02:07:16.985Z,719.11
2023-03-06T02:08:16.977Z,714.23
2023-03-06T02:09:16.953Z,710.01
2023-03-06T02:10:16.971Z,710.69
2023-03-06T02:11:16.988Z,710.82
2023-03-06T02:12:16.927Z,709.05
2023-03-06T02:13:16.916Z,711.64
2023-03-06T02:14:16.916Z,710.09
2023-03-06T02:15:16.894Z,712.08
2023-03-06T02:16:16.885Z,712.02
2023-03-06T02:17:16.872Z,713.41
2023-03-06T02:18:16.862Z,717.27
2023-03-06T02:19:16.855Z,716.92
2023-03-06T02:20:16.850Z,711.69
2023-03-06T02:21:16.821Z,708.43
2023-03-06T02:22:16.827Z,710.38
2023-03-06T02:23:16.803Z,705.27
2023-03-06T02:24:16.823Z,708.47
2023-03-06T02:25:16.792Z,704.24
2023-03-06T02:26:16.782Z,702.15
2023-03-06T02:27:16.781Z,704.01
2023-03-06T02:28:16.754Z,705.61
2023-03-06T02:29:16.759Z,700.37
2023-03-06T02:30:16.748Z,698.50
2023-03-06T02:31:16.789Z,698.55
2023-03-06T02:32:16.726Z,702.22
2023-03-06T02:33:16.711Z,704.24
2023-03-06T02:34:16.710Z,701.73
2023-03-06T02:35:16.689Z,706.15
2023-03-06T02:36:16.679Z,701.50
2023-03-06T02:37:16.666Z,695.14
2023-03-06T02:38:16.675Z,690.89
2023-03-06T02:39:16.629Z,690.97
2023-03-06T02:40:16.657Z,694.06
2023-03-06T02:41:16.625Z,695.31
2023-03-06T02:42:16.600Z,691.30
2023-03-06T02:43:16.614Z,691.66
2023-03-06T02:44:24.088Z,688.81
2023-03-06T02:45:16.560Z,697.17
2023-03-06T02:46:16.611Z,696.05
2023-03-06T02:47:16.545Z,696.93
2023-03-06T02:48:16.535Z,697.32
2023-03-06T02:49:16.516Z,697.09
2023-03-06T02:50:16.509Z,695.25
2023-03-06T02:51:16.505Z,697.30
2023-03-06T02:52:16.487Z,697.23
2023-03-06T02:53:16.488Z,693.21
2023-03-06T02:54:16.493Z,696.11
2023-03-06T02:55:16.460Z,696.33
2023-03-06T02:56:16.452Z,695.13
2023-03-06T02:57:16.491Z,697.60
2023-03-06T02:58:16.419Z,699.88
2023-03-06T02:59:16.450Z,700.14
2023-03-06T03:00:16.430Z,702.88
2023-03-06T03:01:16.424Z,699.16
2023-03-06T03:02:16.380Z,701.59
2023-03-06T03:03:16.370Z,702.44
2023-03-06T03:04:16.474Z,703.56
2023-03-06T03:05:16.346Z,701.55
2023-03-06T03:06:16.371Z,700.77
2023-03-06T03:07:16.337Z,702.52
2023-03-06T03:08:16.329Z,704.15
2023-03-06T03:09:17.225Z,704.90
2023-03-06T03:10:16.299Z,706.49
2023-03-06T03:11:16.276Z,704.29
2023-03-06T03:12:16.265Z,700.47
2023-03-06T03:13:16.246Z,701.57
2023-03-06T03:14:16.259Z,702.03
2023-03-06T03:15:16.262Z,702.75
2023-03-06T03:16:16.298Z,703.39
2023-03-06T03:17:16.216Z,703.68
2023-03-06T03:18:16.220Z,705.01
2023-03-06T03:19:16.188Z,705.54
2023-03-06T03:20:16.196Z,705.20
2023-03-06T03:21:16.178Z,705.60
2023-03-06T03:22:16.187Z,690.98
2023-03-06T03:23:16.148Z,681.19
2023-03-06T03:24:16.153Z,683.28
2023-03-06T03:25:16.132Z,685.42
2023-03-06T03:26:16.116Z,691.25
2023-03-06T03:27:16.097Z,685.52
2023-03-06T03:28:16.119Z,681.29
2023-03-06T03:29:16.109Z,672.14
2023-03-06T03:30:16.075Z,673.20
2023-03-06T03:31:16.180Z,677.13
2023-03-06T03:32:16.149Z,683.08
2023-03-06T03:33:16.040Z,685.79
2023-03-06T03:34:16.037Z,691.14
2023-03-06T03:35:16.023Z,689.99
2023-03-06T03:36:16.038Z,691.30
2023-03-06T03:37:16.002Z,692.02
2023-03-06T03:38:15.989Z,691.25
2023-03-06T03:39:16.001Z,685.98
2023-03-06T03:40:15.983Z,680.04
2023-03-06T03:41:15.948Z,679.28
2023-03-06T03:42:15.939Z,684.33
2023-03-06T03:43:15.930Z,686.77
2023-03-06T03:44:15.927Z,684.62
2023-03-06T03:45:15.946Z,683.61
2023-03-06T03:46:15.931Z,680.79
2023-03-06T03:47:15.923Z,681.72
2023-03-06T03:48:15.890Z,683.85
2023-03-06T03:49:15.880Z,686.14
2023-03-06T03:50:15.893Z,691.20
2023-03-06T03:51:15.863Z,691.20
2023-03-06T03:52:15.834Z,694.63
2023-03-06T03:53:15.818Z,698.15
2023-03-06T03:54:15.833Z,704.59
2023-03-06T03:55:15.793Z,699.47
2023-03-06T03:56:15.813Z,691.89
2023-03-06T03:57:15.800Z,687.62
2023-03-06T03:58:15.793Z,680.13
2023-03-06T03:59:15.778Z,670.66
2023-03-06T04:00:15.757Z,675.87
2023-03-06T04:01:15.744Z,680.10
2023-03-06T04:02:15.816Z,680.19
2023-03-06T04:03:15.739Z,683.72
2023-03-06T04:04:15.721Z,673.16
2023-03-06T04:05:15.688Z,667.35
2023-03-06T04:06:15.676Z,665.35
2023-03-06T04:07:15.664Z,664.14
2023-03-06T04:08:15.745Z,668.79
2023-03-06T04:09:15.671Z,674.16
2023-03-06T04:10:15.641Z,674.88
2023-03-06T04:11:15.622Z,673.09
2023-03-06T04:12:15.621Z,671.75
2023-03-06T04:13:15.601Z,673.31
2023-03-06T04:14:15.602Z,672.77
2023-03-06T04:15:15.596Z,672.50
2023-03-06T04:16:15.566Z,668.67
2023-03-06T04:17:15.557Z,665.13
2023-03-06T04:18:15.540Z,664.10
2023-03-06T04:19:15.574Z,662.52
2023-03-06T04:20:15.546Z,664.57
2023-03-06T04:21:15.510Z,663.11
2023-03-06T04:22:15.515Z,662.15
2023-03-06T04:23:15.502Z,666.77
2023-03-06T04:24:15.481Z,670.82
2023-03-06T04:25:15.499Z,675.64
2023-03-06T04:26:15.459Z,677.78
2023-03-06T04:27:15.467Z,682.66
2023-03-06T04:28:15.448Z,682.40
2023-03-06T04:29:15.426Z,681.42
2023-03-06T04:30:15.444Z,675.15
2023-03-06T04:31:15.463Z,677.18
2023-03-06T04:32:15.413Z,675.62
2023-03-06T04:33:15.387Z,673.96
2023-03-06T04:34:15.378Z,680.08
2023-03-06T04:35:15.390Z,682.38
2023-03-06T04:36:15.385Z,684.69
2023-03-06T04:37:15.356Z,685.57
2023-03-06T04:38:16.245Z,689.13
2023-03-06T04:39:15.327Z,692.09
2023-03-06T04:40:15.305Z,678.26
2023-03-06T04:41:15.317Z,668.73
2023-03-06T04:42:15.307Z,670.81
2023-03-06T04:43:15.280Z,678.34
2023-03-06T04:44:15.268Z,672.16
2023-03-06T04:45:22.793Z,672.66
2023-03-06T04:46:15.243Z,682.93
2023-03-06T04:47:16.551Z,683.98
2023-03-06T04:48:15.223Z,686.22
2023-03-06T04:49:15.207Z,687.71
2023-03-06T04:50:15.201Z,679.92
2023-03-06T04:51:15.211Z,668.28
2023-03-06T04:52:15.189Z,665.27
2023-03-06T04:53:15.175Z,664.75
2023-03-06T04:54:15.150Z,666.94
2023-03-06T04:55:15.147Z,664.31
2023-03-06T04:56:15.134Z,664.41
2023-03-06T04:57:15.177Z,667.16
2023-03-06T04:58:15.121Z,669.05
2023-03-06T04:59:15.116Z,673.84
2023-03-06T05:00:15.106Z,674.92
2023-03-06T05:01:15.146Z,676.44
2023-03-06T05:02:15.142Z,677.26
2023-03-06T05:03:15.065Z,674.73
2023-03-06T05:04:15.060Z,675.59
2023-03-06T05:05:15.029Z,676.10
2023-03-06T05:06:15.022Z,673.32
2023-03-06T05:07:15.031Z,673.90
2023-03-06T05:08:15.009Z,673.74
2023-03-06T05:09:14.984Z,678.59
2023-03-06T05:10:14.979Z,672.73
2023-03-06T05:11:14.964Z,666.87
2023-03-06T05:12:14.966Z,662.56
2023-03-06T05:13:14.948Z,662.28
2023-03-06T05:14:14.928Z,664.80
2023-03-06T05:15:14.933Z,667.56
2023-03-06T05:16:14.960Z,669.83
2023-03-06T05:17:14.898Z,670.89
2023-03-06T05:18:14.883Z,671.97
2023-03-06T05:19:15.394Z,673.36
2023-03-06T05:20:14.895Z,675.53
2023-03-06T05:21:14.862Z,671.85
2023-03-06T05:22:14.849Z,668.89
2023-03-06T05:23:14.878Z,670.46
2023-03-06T05:24:14.822Z,670.96
2023-03-06T05:25:14.841Z,671.83
2023-03-06T05:26:14.802Z,671.82
2023-03-06T05:27:16.876Z,670.90
2023-03-06T05:28:14.787Z,675.10
2023-03-06T05:29:14.772Z,679.15
2023-03-06T05:30:14.787Z,684.67
2023-03-06T05:31:14.747Z,684.49
2023-03-06T05:32:14.859Z,687.15
2023-03-06T05:33:14.770Z,684.02
2023-03-06T05:34:14.729Z,683.73
2023-03-06T05:35:14.710Z,685.14
2023-03-06T05:36:14.704Z,687.42
2023-03-06T05:37:14.679Z,688.01
2023-03-06T05:38:14.672Z,685.65
2023-03-06T05:39:14.697Z,680.11
2023-03-06T05:40:14.674Z,676.71
2023-03-06T05:41:14.658Z,673.02
2023-03-06T05:42:14.626Z,676.71
2023-03-06T05:43:14.660Z,674.41
2023-03-06T05:44:14.623Z,674.02
2023-03-06T05:45:14.608Z,671.58
2023-03-06T05:46:14.618Z,670.37
2023-03-06T05:47:14.590Z,670.24
2023-03-06T05:48:14.574Z,666.66
2023-03-06T05:49:14.553Z,671.76
2023-03-06T05:50:14.561Z,675.83
2023-03-06T05:51:14.556Z,677.28
2023-03-06T05:52:14.531Z,677.58
2023-03-06T05:53:14.517Z,673.00
2023-03-06T05:54:14.494Z,671.38
2023-03-06T05:55:14.524Z,673.60
2023-03-06T05:56:14.496Z,678.48
2023-03-06T05:57:14.493Z,680.07
2023-03-06T05:58:14.456Z,678.08
2023-03-06T05:59:14.450Z,679.73
2023-03-06T06:00:14.451Z,681.97
2023-03-06T06:01:14.436Z,684.90
2023-03-06T06:02:14.456Z,686.18
2023-03-06T06:03:14.459Z,686.63
2023-03-06T06:04:14.396Z,687.75
2023-03-06T06:05:14.381Z,684.78
2023-03-06T06:06:14.388Z,673.95
2023-03-06T06:07:14.515Z,671.05
2023-03-06T06:08:14.336Z,676.72
2023-03-06T06:09:14.328Z,677.96
2023-03-06T06:10:14.335Z,682.30
2023-03-06T06:11:14.355Z,685.53
2023-03-06T06:12:14.311Z,685.26
2023-03-06T06:13:14.314Z,688.24
2023-03-06T06:14:14.271Z,687.35
2023-03-06T06:15:14.282Z,684.64
2023-03-06T06:16:14.362Z,685.01
2023-03-06T06:17:14.249Z,685.76
2023-03-06T06:18:14.228Z,685.15
2023-03-06T06:19:14.236Z,687.85
2023-03-06T06:20:14.261Z,691.32
2023-03-06T06:21:14.206Z,694.32
2023-03-06T06:22:14.196Z,696.66
2023-03-06T06:23:14.189Z,696.96
2023-03-06T06:24:14.186Z,697.64
2023-03-06T06:25:14.161Z,696.68
2023-03-06T06:26:14.183Z,694.00
2023-03-06T06:27:14.166Z,690.69
2023-03-06T06:28:14.129Z,686.88
2023-03-06T06:29:14.123Z,686.83
2023-03-06T06:30:14.140Z,687.13
2023-03-06T06:31:14.184Z,690.51
2023-03-06T06:32:14.128Z,686.47
2023-03-06T06:33:14.098Z,683.44
2023-03-06T06:34:14.065Z,684.49
2023-03-06T06:35:14.068Z,685.82
2023-03-06T06:36:14.030Z,679.60
2023-03-06T06:37:14.037Z,680.24
2023-03-06T06:38:14.048Z,682.37
2023-03-06T06:39:14.008Z,684.27
2023-03-06T06:40:14.038Z,688.17
2023-03-06T06:41:46.199Z,688.71
2023-03-06T06:42:30.502Z,686.89
2023-03-06T06:43:15.012Z,689.31
2023-03-06T06:44:13.947Z,693.59
2023-03-06T06:45:13.973Z,691.68
2023-03-06T06:47:02.623Z,690.12
2023-03-06T06:47:22.766Z,688.62
2023-03-06T06:48:16.699Z,690.35
2023-03-06T06:49:13.900Z,682.35
2023-03-06T06:50:14.848Z,685.36
2023-03-06T06:51:13.902Z,683.33
2023-03-06T06:52:14.110Z,679.06
2023-03-06T06:53:13.933Z,680.19
2023-03-06T06:54:13.843Z,684.20
2023-03-06T06:55:13.837Z,687.58
2023-03-06T06:56:13.821Z,689.28
2023-03-06T06:57:14.085Z,689.62
2023-03-06T06:58:13.799Z,687.27
2023-03-06T06:59:16.980Z,688.28
2023-03-06T07:00:13.781Z,688.85
2023-03-06T07:01:13.798Z,682.91
2023-03-06T07:02:13.780Z,684.07
2023-03-06T07:03:13.836Z,684.83
2023-03-06T07:04:13.847Z,676.46
2023-03-06T07:05:13.775Z,674.76
2023-03-06T07:06:13.713Z,677.27
2023-03-06T07:07:13.737Z,676.30
2023-03-06T07:08:13.695Z,679.77
2023-03-06T07:09:13.723Z,680.66
2023-03-06T07:10:13.722Z,684.25
2023-03-06T07:11:13.902Z,686.52
2023-03-06T07:12:13.659Z,683.33
2023-03-06T07:13:13.653Z,682.18
2023-03-06T07:14:13.624Z,686.11
2023-03-06T07:15:13.661Z,683.67
2023-03-06T07:16:13.690Z,681.56
2023-03-06T07:17:13.673Z,674.30
2023-03-06T07:18:13.618Z,673.09
2023-03-06T07:19:13.575Z,671.06
2023-03-06T07:20:13.568Z,666.99
2023-03-06T07:21:13.544Z,674.73
2023-03-06T07:22:13.548Z,674.61
2023-03-06T07:23:13.564Z,682.73
2023-03-06T07:24:13.551Z,682.25
2023-03-06T07:25:13.535Z,678.50
2023-03-06T07:26:13.495Z,676.12
2023-03-06T07:27:13.496Z,677.60
2023-03-06T07:28:13.545Z,680.47
2023-03-06T07:29:13.490Z,679.98
2023-03-06T07:30:13.454Z,682.93
2023-03-06T07:31:13.506Z,684.28
2023-03-06T07:32:13.500Z,684.55
2023-03-06T07:33:13.455Z,688.58
2023-03-06T07:34:13.429Z,689.93
2023-03-06T07:35:20.135Z,684.33
2023-03-06T07:36:14.037Z,685.51
2023-03-06T07:37:13.388Z,687.92
2023-03-06T07:38:13.439Z,691.84
2023-03-06T07:39:13.377Z,689.94
2023-03-06T07:40:13.342Z,687.85
2023-03-06T07:41:13.422Z,690.02
2023-03-06T07:42:13.334Z,689.38
2023-03-06T07:43:19.364Z,687.88
2023-03-06T07:44:13.338Z,686.04
2023-03-06T07:45:13.295Z,682.50
2023-03-06T07:46:13.414Z,686.81
2023-03-06T07:47:13.332Z,683.59
2023-03-06T07:48:13.275Z,685.83
2023-03-06T07:49:13.290Z,686.89
2023-03-06T07:50:13.236Z,691.30
2023-03-06T07:51:13.252Z,691.96
2023-03-06T07:52:13.234Z,693.33
2023-03-06T07:53:13.238Z,694.27
2023-03-06T07:54:13.208Z,687.54
2023-03-06T07:55:13.181Z,688.03
2023-03-06T07:56:13.200Z,692.14
2023-03-06T07:57:13.180Z,690.33
2023-03-06T07:58:13.162Z,686.55
2023-03-06T07:59:13.139Z,683.79
2023-03-06T08:00:13.156Z,683.70
2023-03-06T08:01:13.146Z,678.62
2023-03-06T08:02:13.821Z,674.98
2023-03-06T08:03:13.227Z,673.40
2023-03-06T08:04:14.341Z,682.24
2023-03-06T08:05:13.179Z,678.77
2023-03-06T08:06:13.083Z,679.24
2023-03-06T08:07:13.059Z,673.47
2023-03-06T08:08:13.068Z,672.53
2023-03-06T08:09:13.033Z,667.70
2023-03-06T08:10:13.021Z,668.35
2023-03-06T08:11:13.025Z,672.04
2023-03-06T08:12:14.686Z,674.36
2023-03-06T08:13:13.027Z,680.25
2023-03-06T08:14:12.986Z,681.53
2023-03-06T08:15:12.997Z,678.98
2023-03-06T08:16:13.851Z,684.87
2023-03-06T08:17:12.943Z,677.95
2023-03-06T08:18:12.923Z,677.04
2023-03-06T08:19:12.946Z,672.58
2023-03-06T08:20:12.922Z,672.18
2023-03-06T08:21:14.274Z,671.91
2023-03-06T08:22:12.961Z,669.60
2023-03-06T08:23:12.914Z,669.90
2023-03-06T08:24:12.867Z,669.65
2023-03-06T08:25:13.026Z,671.95
2023-03-06T08:26:12.851Z,672.28
2023-03-06T08:27:12.823Z,667.94
2023-03-06T08:28:12.840Z,668.27
2023-03-06T08:29:12.802Z,667.92
2023-03-06T08:30:12.788Z,665.33
2023-03-06T08:31:12.832Z,666.70
2023-03-06T08:32:12.844Z,669.54
2023-03-06T08:33:12.839Z,670.31
2023-03-06T08:34:12.755Z,669.65
2023-03-06T08:35:12.810Z,671.39
2023-03-06T08:36:13.161Z,668.66
2023-03-06T08:37:12.804Z,670.32
2023-03-06T08:38:12.775Z,671.37
2023-03-06T08:39:13.327Z,668.66
2023-03-06T08:40:12.764Z,666.67
2023-03-06T08:41:13.432Z,666.83
2023-03-06T08:42:13.343Z,668.20
2023-03-06T08:43:14.162Z,672.91
2023-03-06T08:44:12.691Z,675.55
2023-03-06T08:45:12.674Z,676.49
2023-03-06T08:46:12.644Z,676.99
2023-03-06T08:47:20.310Z,679.10
2023-03-06T08:48:13.620Z,684.74
2023-03-06T08:49:12.621Z,681.26
2023-03-06T08:50:12.601Z,677.77
2023-03-06T08:51:12.616Z,664.84
2023-03-06T08:52:12.591Z,665.65
2023-03-06T08:53:12.621Z,657.63
2023-03-06T08:54:12.545Z,649.34
2023-03-06T08:55:14.788Z,648.50
2023-03-06T08:56:12.538Z,646.98
2023-03-06T08:57:12.544Z,643.56
2023-03-06T08:58:12.622Z,638.95
2023-03-06T08:59:12.545Z,636.06
2023-03-06T09:00:12.514Z,636.02
2023-03-06T09:01:12.539Z,636.52
2023-03-06T09:02:12.476Z,638.80
2023-03-06T09:03:12.443Z,643.88
2023-03-06T09:04:12.516Z,649.66
2023-03-06T09:05:12.825Z,647.65
2023-03-06T09:06:12.401Z,650.66
2023-03-06T09:07:12.410Z,649.89
2023-03-06T09:08:12.394Z,647.30
2023-03-06T09:09:12.367Z,643.43
2023-03-06T09:10:12.357Z,640.89
2023-03-06T09:11:12.357Z,642.92
2023-03-06T09:12:12.332Z,644.59
2023-03-06T09:13:12.318Z,644.85
2023-03-06T09:14:12.324Z,647.66
2023-03-06T09:15:12.298Z,648.01
2023-03-06T09:16:12.354Z,651.34
2023-03-06T09:17:12.300Z,649.29
2023-03-06T09:18:12.266Z,645.18
2023-03-06T09:19:12.278Z,646.61
2023-03-06T09:20:12.292Z,643.79
2023-03-06T09:21:12.257Z,645.77
2023-03-06T09:22:12.239Z,650.61
2023-03-06T09:23:12.244Z,650.39
2023-03-06T09:24:12.211Z,652.17
2023-03-06T09:25:12.781Z,651.42
2023-03-06T09:26:12.300Z,651.50
2023-03-06T09:27:12.210Z,654.65
2023-03-06T09:28:12.451Z,651.10
2023-03-06T09:29:12.168Z,650.03
2023-03-06T09:30:12.163Z,648.92
2023-03-06T09:31:12.240Z,646.29
2023-03-06T09:32:12.362Z,648.70
2023-03-06T09:33:12.132Z,644.99
2023-03-06T09:34:12.194Z,645.13
2023-03-06T09:35:12.122Z,647.92
2023-03-06T09:36:12.124Z,646.33
2023-03-06T09:37:12.069Z,643.48
2023-03-06T09:38:12.095Z,642.70
2023-03-06T09:39:12.157Z,645.69
2023-03-06T09:40:12.077Z,644.28
2023-03-06T09:41:12.019Z,643.24
2023-03-06T09:42:12.057Z,643.15
2023-03-06T09:43:12.072Z,645.21
2023-03-06T09:44:12.049Z,649.72
2023-03-06T09:45:11.979Z,649.68
2023-03-06T09:46:12.017Z,645.41
2023-03-06T09:47:11.950Z,645.21
2023-03-06T09:48:12.010Z,648.53
2023-03-06T09:49:11.941Z,650.76
2023-03-06T09:50:11.988Z,653.75
2023-03-06T09:51:11.935Z,656.81
2023-03-06T09:52:11.988Z,653.59
2023-03-06T09:53:12.879Z,652.79
2023-03-06T09:54:11.906Z,654.39
2023-03-06T09:55:11.890Z,654.24
2023-03-06T09:56:11.882Z,654.95
2023-03-06T09:57:11.887Z,657.29
2023-03-06T09:58:11.887Z,656.96
2023-03-06T09:59:11.841Z,656.44
2023-03-06T10:00:11.846Z,658.19
2023-03-06T10:01:11.817Z,658.11
2023-03-06T10:02:11.913Z,652.66
2023-03-06T10:03:11.854Z,652.67
2023-03-06T10:04:11.780Z,651.25
2023-03-06T10:05:11.851Z,655.00
2023-03-06T10:06:11.805Z,655.07
2023-03-06T10:07:11.746Z,656.42
2023-03-06T10:08:11.737Z,654.90
2023-03-06T10:09:11.728Z,656.24
2023-03-06T10:10:11.700Z,657.32
2023-03-06T10:11:11.716Z,655.91
2023-03-06T10:12:11.787Z,654.98
2023-03-06T10:13:11.662Z,654.93
2023-03-06T10:14:11.653Z,654.90
2023-03-06T10:15:11.652Z,653.15
2023-03-06T10:16:11.662Z,653.54
2023-03-06T10:17:11.679Z,655.64
2023-03-06T10:18:11.642Z,658.91
2023-03-06T10:19:11.689Z,660.45
2023-03-06T10:20:11.607Z,661.18
2023-03-06T10:21:19.062Z,658.12
2023-03-06T10:22:11.643Z,660.39
2023-03-06T10:23:12.097Z,659.47
2023-03-06T10:24:12.299Z,660.18
2023-03-06T10:25:11.543Z,659.04
2023-03-06T10:26:11.700Z,658.72
2023-03-06T10:27:13.372Z,662.02
2023-03-06T10:28:12.529Z,663.54
2023-03-06T10:29:11.497Z,663.97
2023-03-06T10:30:11.491Z,662.82
2023-03-06T10:31:11.553Z,663.00
2023-03-06T10:32:11.509Z,663.73
2023-03-06T10:33:11.468Z,664.83
2023-03-06T10:34:11.438Z,663.93
2023-03-06T10:35:11.425Z,662.31
2023-03-06T10:36:11.521Z,661.10
2023-03-06T10:37:11.409Z,663.90
2023-03-06T10:38:11.399Z,663.92
2023-03-06T10:39:11.415Z,665.61
2023-03-06T10:40:11.424Z,666.33
2023-03-06T10:41:11.418Z,668.92
2023-03-06T10:42:11.390Z,669.61
2023-03-06T10:43:12.332Z,670.60
2023-03-06T10:44:11.379Z,670.68
2023-03-06T10:45:11.336Z,670.40
2023-03-06T10:46:11.369Z,668.00
2023-03-06T10:47:11.312Z,665.84
2023-03-06T10:48:18.798Z,669.22
2023-03-06T10:49:11.511Z,671.37
2023-03-06T10:50:11.297Z,669.12
2023-03-06T10:51:18.025Z,671.92
2023-03-06T10:52:11.249Z,672.78
2023-03-06T10:53:11.281Z,672.82
2023-03-06T10:54:11.243Z,674.80
2023-03-06T10:55:12.715Z,677.74
2023-03-06T10:56:11.212Z,678.54
2023-03-06T10:57:11.257Z,678.63
2023-03-06T10:58:11.267Z,678.71
2023-03-06T10:59:11.194Z,680.04
2023-03-06T11:00:11.158Z,681.39
2023-03-06T11:01:11.243Z,679.18
2023-03-06T11:02:11.160Z,679.16
2023-03-06T11:03:11.165Z,683.08
2023-03-06T11:04:11.152Z,684.22
2023-03-06T11:05:11.193Z,685.48
2023-03-06T11:06:13.021Z,685.77
2023-03-06T11:07:11.093Z,689.53
2023-03-06T11:08:11.097Z,691.70
2023-03-06T11:09:11.080Z,694.61
2023-03-06T11:10:11.089Z,691.85
2023-03-06T11:11:11.067Z,694.96
2023-03-06T11:12:11.044Z,694.62
2023-03-06T11:13:11.028Z,693.78
2023-03-06T11:14:11.008Z,694.13
2023-03-06T11:15:11.090Z,690.17
2023-03-06T11:16:11.082Z,690.46
2023-03-06T11:17:11.000Z,692.03
2023-03-06T11:18:10.992Z,694.14
2023-03-06T11:19:10.959Z,697.61
2023-03-06T11:20:11.188Z,702.59
2023-03-06T11:21:10.966Z,704.05
2023-03-06T11:22:10.929Z,704.29
2023-03-06T11:23:11.084Z,703.90
2023-03-06T11:24:10.986Z,707.68
2023-03-06T11:25:10.883Z,707.32
2023-03-06T11:26:10.883Z,704.85
2023-03-06T11:27:11.044Z,701.90
2023-03-06T11:28:10.865Z,702.92
2023-03-06T11:29:10.894Z,703.05
2023-03-06T11:30:10.820Z,702.39
2023-03-06T11:31:10.891Z,705.68
2023-03-06T11:32:10.859Z,706.74
2023-03-06T11:33:10.804Z,710.68
2023-03-06T11:34:10.835Z,708.61
2023-03-06T11:35:10.774Z,710.60
2023-03-06T11:36:10.774Z,713.27
2023-03-06T11:37:10.800Z,712.97
2023-03-06T11:38:10.742Z,713.01
2023-03-06T11:39:10.750Z,713.95
2023-03-06T11:40:10.760Z,719.97
2023-03-06T11:41:10.724Z,719.66
2023-03-06T11:42:10.689Z,712.36
2023-03-06T11:43:10.696Z,710.84
2023-03-06T11:44:10.670Z,707.94
2023-03-06T11:45:10.654Z,709.34
2023-03-06T11:46:10.673Z,714.43
2023-03-06T11:47:10.659Z,713.11
2023-03-06T11:48:10.640Z,715.63
2023-03-06T11:49:10.632Z,714.05
2023-03-06T11:50:10.608Z,713.04
2023-03-06T11:51:10.723Z,713.58
2023-03-06T11:52:10.595Z,714.97
2023-03-06T11:53:10.651Z,714.95
2023-03-06T11:54:10.580Z,714.35
2023-03-06T11:55:10.545Z,715.08
2023-03-06T11:56:10.547Z,715.68
2023-03-06T11:57:10.526Z,715.05
2023-03-06T11:58:10.551Z,716.15
2023-03-06T11:59:10.579Z,719.08
2023-03-06T12:00:10.495Z,720.03
2023-03-06T12:01:10.487Z,718.47
2023-03-06T12:02:10.531Z,717.35
2023-03-06T12:03:10.564Z,717.52
2023-03-06T12:04:10.506Z,721.30
2023-03-06T12:05:10.518Z,720.75
2023-03-06T12:06:10.547Z,722.49
2023-03-06T12:07:10.502Z,726.57
2023-03-06T12:08:10.470Z,723.65
2023-03-06T12:09:10.478Z,728.67
2023-03-06T12:10:10.453Z,731.46
2023-03-06T12:11:11.416Z,736.64
2023-03-06T12:12:10.380Z,736.47
2023-03-06T12:13:10.369Z,738.90
2023-03-06T12:14:10.401Z,735.32
2023-03-06T12:15:10.399Z,736.15
2023-03-06T12:16:10.467Z,741.91
2023-03-06T12:17:10.445Z,739.91
2023-03-06T12:18:10.313Z,739.22
2023-03-06T12:19:10.310Z,734.71
2023-03-06T12:20:10.274Z,731.32
2023-03-06T12:21:10.268Z,735.85
2023-03-06T12:22:10.258Z,734.10
2023-03-06T12:23:15.329Z,737.06
2023-03-06T12:24:10.231Z,740.47
2023-03-06T12:25:10.217Z,739.87
2023-03-06T12:26:10.218Z,740.29
2023-03-06T12:27:10.194Z,742.31
2023-03-06T12:28:10.261Z,733.73